createdAt,value
2023-09-28T00:01:23.384Z,11.50
2023-09-28T00:03:53.310Z,12.30
2023-09-28T00:06:21.714Z,12.00
2023-09-28T00:08:49.595Z,12.40
2023-09-28T00:11:17.633Z,11.90
2023-09-28T00:13:45.719Z,13.30
2023-09-28T00:16:13.697Z,11.90
2023-09-28T00:18:41.762Z,12.20
2023-09-28T00:21:09.759Z,12.10
2023-09-28T00:23:38.193Z,12.30
2023-09-28T00:26:06.230Z,11.30
2023-09-28T00:28:35.046Z,12.10
2023-09-28T00:31:06.329Z,11.70
2023-09-28T00:33:34.456Z,11.60
2023-09-28T00:36:02.406Z,11.20
2023-09-28T00:38:30.436Z,11.90
2023-09-28T00:40:59.253Z,12.60
2023-09-28T00:43:28.244Z,12.30
2023-09-28T00:45:56.272Z,12.20
2023-09-28T00:48:24.168Z,11.50
2023-09-28T00:50:52.990Z,11.80
2023-09-28T00:53:24.226Z,12.40
2023-09-28T00:55:54.810Z,11.70
2023-09-28T00:58:25.043Z,12.00
2023-09-28T01:00:53.360Z,12.80
2023-09-28T01:03:21.579Z,12.70
2023-09-28T01:05:50.477Z,11.60
2023-09-28T01:08:20.467Z,12.50
2023-09-28T01:10:48.841Z,13.10
2023-09-28T01:13:22.536Z,12.90
2023-09-28T01:15:51.411Z,13.00
2023-09-28T01:18:24.034Z,13.30
2023-09-28T01:20:53.321Z,13.20
2023-09-28T01:23:21.825Z,12.80
2023-09-28T01:25:50.875Z,12.80
2023-09-28T01:28:19.665Z,13.30
2023-09-28T01:30:49.714Z,13.30
2023-09-28T01:33:18.198Z,13.20
2023-09-28T01:35:46.714Z,12.60
2023-09-28T01:38:24.149Z,12.10
2023-09-28T01:40:53.019Z,12.50
2023-09-28T01:43:21.292Z,12.20
2023-09-28T01:45:50.888Z,13.50
2023-09-28T01:48:19.378Z,12.50
2023-09-28T01:50:47.621Z,12.30
2023-09-28T01:53:15.630Z,12.90
2023-09-28T01:55:44.170Z,12.10
2023-09-28T01:58:13.126Z,12.70
2023-09-28T02:00:45.783Z,12.20
2023-09-28T02:03:16.373Z,13.20
2023-09-28T02:05:44.751Z,12.00
2023-09-28T02:08:12.869Z,12.30
2023-09-28T02:10:41.939Z,12.00
2023-09-28T02:13:10.359Z,12.10
2023-09-28T02:15:38.580Z,12.50
2023-09-28T02:18:06.779Z,12.80
2023-09-28T02:20:35.695Z,13.80
2023-09-28T02:23:07.118Z,13.90
2023-09-28T02:25:36.648Z,13.60
2023-09-28T02:28:05.780Z,12.50
2023-09-28T02:30:33.807Z,13.20
2023-09-28T02:33:01.926Z,12.70
2023-09-28T02:35:30.350Z,12.50
2023-09-28T02:37:58.248Z,13.50
2023-09-28T02:40:26.392Z,13.60
2023-09-28T02:42:54.994Z,13.80
2023-09-28T02:45:23.122Z,13.00
2023-09-28T02:47:52.121Z,13.00
2023-09-28T02:50:23.330Z,13.00
2023-09-28T02:52:54.067Z,13.00
2023-09-28T02:55:23.134Z,13.40
2023-09-28T02:57:51.125Z,12.90
2023-09-28T03:00:23.051Z,13.50
2023-09-28T03:05:22.528Z,12.90
2023-09-28T03:07:51.009Z,14.20
2023-09-28T03:10:20.745Z,15.00
2023-09-28T03:12:52.610Z,14.00
2023-09-28T03:15:22.235Z,13.60
2023-09-28T03:17:51.080Z,12.90
2023-09-28T03:20:27.492Z,13.50
2023-09-28T03:22:55.661Z,14.40
2023-09-28T03:25:24.064Z,12.70
2023-09-28T03:27:55.038Z,13.60
2023-09-28T03:30:26.440Z,12.80
2023-09-28T03:32:54.785Z,13.80
2023-09-28T03:35:23.364Z,14.10
2023-09-28T03:37:56.282Z,14.40
2023-09-28T03:40:24.505Z,13.90
2023-09-28T03:42:52.460Z,13.80
2023-09-28T03:45:23.531Z,14.10
2023-09-28T03:47:55.415Z,13.60
2023-09-28T03:50:25.798Z,13.90
2023-09-28T03:56:06.710Z,15.00
2023-09-28T03:58:35.299Z,14.30
2023-09-28T04:01:08.528Z,14.80
2023-09-28T04:03:37.705Z,13.80
2023-09-28T04:06:05.906Z,14.50
2023-09-28T04:08:33.764Z,15.00
2023-09-28T04:11:01.622Z,14.00
2023-09-28T04:13:29.455Z,14.70
2023-09-28T04:15:57.674Z,14.60
2023-09-28T04:18:25.508Z,14.90
2023-09-28T04:20:53.404Z,15.10
2023-09-28T04:23:21.342Z,15.60
2023-09-28T04:25:49.299Z,16.90
2023-09-28T04:28:17.254Z,16.40
2023-09-28T04:30:44.970Z,16.10
2023-09-28T04:33:12.840Z,16.70
2023-09-28T04:35:40.975Z,17.30
2023-09-28T04:38:08.870Z,16.30
2023-09-28T04:40:38.282Z,17.40
2023-09-28T04:43:06.440Z,17.70
2023-09-28T04:45:34.971Z,18.80
2023-09-28T04:48:02.971Z,18.00
2023-09-28T04:50:31.236Z,17.50
2023-09-28T04:52:59.314Z,17.70
2023-09-28T04:55:27.209Z,19.10
2023-09-28T04:57:55.123Z,20.20
2023-09-28T05:00:23.033Z,18.30
2023-09-28T05:02:51.195Z,18.40
2023-09-28T05:05:19.328Z,18.10
2023-09-28T05:07:47.769Z,18.20
2023-09-28T05:10:15.968Z,19.50
2023-09-28T05:12:44.727Z,18.10
2023-09-28T05:15:13.641Z,18.60
2023-09-28T05:17:41.558Z,17.50
2023-09-28T05:20:10.770Z,18.40
2023-09-28T05:22:38.884Z,19.00
2023-09-28T05:25:07.951Z,18.30
2023-09-28T05:27:35.877Z,18.90
2023-09-28T05:30:05.887Z,20.50
2023-09-28T05:32:33.897Z,20.30
2023-09-28T05:35:02.316Z,18.50
2023-09-28T05:37:30.343Z,19.30
2023-09-28T05:40:01.375Z,18.70
2023-09-28T05:42:29.204Z,19.40
2023-09-28T05:44:57.200Z,19.30
2023-09-28T05:47:25.177Z,18.50
2023-09-28T05:49:53.748Z,18.90
2023-09-28T05:52:23.723Z,19.60
2023-09-28T05:54:51.880Z,19.20
2023-09-28T05:57:21.971Z,19.60
2023-09-28T05:59:50.844Z,20.60
2023-09-28T06:02:24.328Z,18.90
2023-09-28T06:04:52.851Z,18.90
2023-09-28T06:07:20.720Z,19.70
2023-09-28T06:09:48.663Z,19.70
2023-09-28T06:12:16.700Z,18.60
2023-09-28T06:14:44.773Z,18.60
2023-09-28T06:17:12.702Z,20.50
2023-09-28T06:19:55.066Z,19.20
2023-09-28T06:22:26.192Z,20.20
2023-09-28T06:24:56.080Z,20.10
2023-09-28T06:27:30.211Z,19.40
2023-09-28T06:29:58.464Z,19.70
2023-09-28T06:32:27.187Z,19.80
2023-09-28T06:34:55.244Z,18.50
2023-09-28T06:37:23.133Z,18.20
2023-09-28T06:39:51.164Z,18.00
2023-09-28T06:44:49.813Z,19.60
2023-09-28T06:47:17.869Z,19.20
2023-09-28T06:49:45.737Z,19.90
2023-09-28T06:52:13.627Z,18.40
2023-09-28T06:54:41.499Z,17.60
2023-09-28T06:57:09.551Z,17.10
2023-09-28T06:59:38.367Z,16.40
2023-09-28T07:02:06.245Z,17.00
2023-09-28T07:04:34.713Z,16.70
2023-09-28T07:07:02.492Z,15.90
2023-09-28T07:09:34.053Z,15.80
2023-09-28T07:12:06.179Z,14.90
2023-09-28T07:14:34.101Z,14.20
2023-09-28T07:17:02.061Z,15.50
2023-09-28T07:19:29.981Z,14.30
2023-09-28T07:21:58.118Z,14.00
2023-09-28T07:24:27.331Z,14.70
2023-09-28T07:26:55.161Z,13.50
2023-09-28T07:29:23.004Z,13.10
2023-09-28T07:31:50.942Z,13.30
2023-09-28T07:34:18.862Z,13.40
2023-09-28T07:36:46.853Z,13.40
2023-09-28T07:39:16.013Z,12.50
2023-09-28T07:41:44.724Z,11.60
2023-09-28T07:44:12.638Z,11.20
2023-09-28T07:46:42.901Z,11.40
2023-09-28T07:49:10.924Z,11.80
2023-09-28T07:51:40.266Z,11.90
2023-09-28T07:54:08.294Z,10.40
2023-09-28T07:56:36.258Z,11.10
2023-09-28T07:59:04.280Z,9.70
2023-09-28T08:01:38.837Z,10.00
2023-09-28T08:04:07.407Z,10.60
2023-09-28T08:06:35.325Z,11.00
2023-09-28T08:09:04.161Z,9.90
2023-09-28T08:11:32.100Z,10.40
2023-09-28T08:14:00.240Z,9.30
2023-09-28T08:16:28.635Z,9.10
2023-09-28T08:18:56.527Z,9.30
2023-09-28T08:21:27.898Z,8.80
2023-09-28T08:23:56.847Z,9.70
2023-09-28T08:26:24.966Z,9.50
2023-09-28T08:28:54.355Z,8.90
2023-09-28T08:31:22.269Z,10.20
2023-09-28T08:33:50.750Z,9.10
2023-09-28T08:36:19.015Z,8.90
2023-09-28T08:38:47.938Z,9.00
2023-09-28T08:41:28.546Z,9.00
2023-09-28T08:44:05.542Z,8.60
2023-09-28T08:46:45.908Z,8.40
2023-09-28T08:49:17.488Z,8.50
2023-09-28T08:51:46.046Z,7.60
2023-09-28T08:54:14.400Z,7.60
2023-09-28T08:56:47.478Z,8.10
2023-09-28T08:59:18.331Z,7.80
2023-09-28T09:01:48.121Z,6.80
2023-09-28T09:04:16.180Z,7.30
2023-09-28T09:06:44.515Z,6.20
2023-09-28T09:09:16.548Z,7.60
2023-09-28T09:11:53.585Z,6.10
2023-09-28T09:14:26.301Z,6.30
2023-09-28T09:16:54.503Z,6.10
2023-09-28T09:19:22.977Z,5.30
2023-09-28T09:21:52.393Z,5.60
2023-09-28T09:24:20.437Z,5.50
2023-09-28T09:26:51.044Z,5.70
2023-09-28T09:29:19.824Z,5.00
2023-09-28T09:31:49.024Z,4.80
2023-09-28T09:34:21.872Z,4.90
2023-09-28T09:36:57.446Z,4.90
2023-09-28T09:39:29.124Z,5.00
2023-09-28T09:41:59.310Z,4.40
2023-09-28T09:44:28.691Z,4.80
2023-09-28T09:46:57.598Z,4.70
2023-09-28T09:49:26.042Z,4.50
2023-09-28T09:51:55.369Z,4.90
2023-09-28T09:54:23.834Z,4.30
2023-09-28T09:56:53.518Z,4.20
2023-09-28T09:59:23.547Z,4.30
2023-09-28T10:01:54.743Z,4.20
2023-09-28T10:04:26.138Z,3.90
2023-09-28T10:06:59.802Z,4.80
2023-09-28T10:09:29.069Z,4.10
2023-09-28T10:11:57.272Z,4.20
2023-09-28T10:14:27.344Z,4.40
2023-09-28T10:16:56.923Z,4.10
2023-09-28T10:19:26.356Z,5.00
2023-09-28T10:21:57.607Z,4.30
2023-09-28T10:24:36.508Z,4.30
2023-09-28T10:27:11.570Z,4.00
2023-09-28T10:29:41.097Z,4.30
2023-09-28T10:32:29.826Z,3.60
2023-09-28T10:35:31.982Z,3.60
2023-09-28T10:38:18.773Z,4.00
2023-09-28T10:40:59.270Z,3.80
2023-09-28T10:43:44.700Z,3.80
2023-09-28T10:46:12.775Z,4.30
2023-09-28T10:48:45.659Z,4.60
2023-09-28T10:51:17.097Z,3.80
2023-09-28T10:53:46.708Z,3.40
2023-09-28T10:56:14.963Z,4.40
2023-09-28T10:58:43.830Z,3.70
2023-09-28T11:01:12.173Z,3.40
2023-09-28T11:03:40.904Z,4.80
2023-09-28T11:06:11.532Z,3.50
2023-09-28T11:08:41.004Z,3.70
2023-09-28T11:11:10.598Z,3.30
2023-09-28T11:13:39.579Z,4.00
2023-09-28T11:16:08.575Z,3.40
2023-09-28T11:18:38.747Z,3.90
2023-09-28T11:21:06.647Z,3.40
2023-09-28T11:23:36.218Z,3.60
2023-09-28T11:26:06.299Z,3.30
2023-09-28T11:28:34.355Z,3.80
2023-09-28T11:31:09.246Z,4.30
2023-09-28T11:33:37.872Z,3.60
2023-09-28T11:36:07.911Z,3.60
2023-09-28T11:38:35.900Z,3.50
2023-09-28T11:41:06.015Z,3.40
2023-09-28T11:43:35.635Z,3.80
2023-09-28T11:46:04.810Z,3.60
2023-09-28T11:48:32.823Z,3.60
2023-09-28T11:51:00.887Z,3.70
2023-09-28T11:53:28.828Z,3.60
2023-09-28T11:55:56.776Z,3.80
2023-09-28T11:58:26.248Z,3.50
2023-09-28T12:00:54.906Z,3.90
2023-09-28T12:03:23.124Z,3.50
2023-09-28T12:05:51.244Z,3.50
2023-09-28T12:08:19.515Z,3.50
2023-09-28T12:10:47.856Z,3.10
2023-09-28T12:13:15.772Z,3.60
2023-09-28T12:15:43.603Z,3.30
2023-09-28T12:18:11.977Z,3.80
2023-09-28T12:20:39.794Z,3.30
2023-09-28T12:23:08.106Z,3.30
2023-09-28T12:25:36.185Z,3.60
2023-09-28T12:28:04.495Z,4.00
2023-09-28T12:30:33.314Z,3.40
2023-09-28T12:33:01.434Z,3.50
2023-09-28T12:35:29.998Z,3.50
2023-09-28T12:37:58.234Z,3.30
2023-09-28T12:40:26.582Z,3.20
2023-09-28T12:42:54.610Z,3.40
2023-09-28T12:45:22.768Z,3.50
2023-09-28T12:47:57.260Z,3.70
2023-09-28T12:50:31.339Z,3.80
2023-09-28T12:53:03.098Z,4.10
2023-09-28T12:55:36.466Z,3.60
2023-09-28T12:58:05.099Z,3.40
2023-09-28T13:00:36.421Z,2.90
2023-09-28T13:03:09.361Z,3.30
2023-09-28T13:05:39.466Z,3.50
2023-09-28T13:08:14.449Z,3.50
2023-09-28T13:10:44.330Z,3.80
2023-09-28T13:13:15.554Z,3.80
2023-09-28T13:15:43.878Z,3.90
2023-09-28T13:18:21.844Z,3.80
2023-09-28T13:20:50.091Z,3.60
2023-09-28T13:23:19.124Z,4.10
2023-09-28T13:25:48.460Z,3.50
2023-09-28T13:28:35.019Z,3.30
2023-09-28T13:34:32.881Z,3.50
2023-09-28T13:37:15.850Z,3.50
2023-09-28T13:39:47.057Z,3.90
2023-09-28T13:45:56.551Z,3.30
2023-09-28T13:48:29.745Z,3.60
2023-09-28T13:50:59.111Z,3.40
2023-09-28T13:53:38.209Z,6.90
2023-09-28T14:02:50.168Z,4.00
2023-09-28T14:06:14.269Z,3.60
2023-09-28T14:08:49.743Z,3.70
2023-09-28T14:11:52.935Z,3.80
2023-09-28T14:14:23.784Z,4.00
2023-09-28T14:17:08.839Z,4.10
2023-09-28T14:19:49.341Z,4.40
2023-09-28T14:22:20.839Z,4.00
2023-09-28T14:25:02.573Z,4.10
2023-09-28T14:27:40.277Z,3.70
2023-09-28T14:30:10.875Z,3.70
2023-09-28T14:32:38.947Z,4.40
2023-09-28T14:35:08.338Z,3.80
2023-09-28T14:37:36.920Z,4.10
2023-09-28T14:40:15.714Z,4.60
2023-09-28T14:42:48.215Z,4.20
2023-09-28T14:45:19.796Z,4.40
2023-09-28T14:47:48.996Z,3.90
2023-09-28T14:50:18.808Z,4.20
2023-09-28T14:52:47.459Z,4.10
2023-09-28T14:55:15.754Z,3.90
2023-09-28T14:57:50.258Z,4.20
2023-09-28T15:00:24.044Z,3.90
2023-09-28T15:02:52.206Z,4.30
2023-09-28T15:05:20.442Z,5.60
2023-09-28T15:07:48.470Z,4.30
2023-09-28T15:10:17.485Z,3.60
2023-09-28T15:12:45.682Z,4.20
2023-09-28T15:15:13.576Z,4.30
2023-09-28T15:17:41.607Z,4.30
2023-09-28T15:20:13.241Z,3.90
2023-09-28T15:22:42.094Z,4.30
2023-09-28T15:25:10.275Z,4.30
2023-09-28T15:27:43.459Z,4.40
2023-09-28T15:30:16.417Z,4.20
2023-09-28T15:33:22.163Z,4.90
2023-09-28T15:35:49.630Z,4.50
2023-09-28T15:38:16.693Z,4.30
2023-09-28T15:40:44.487Z,4.00
2023-09-28T15:43:11.578Z,4.50
2023-09-28T15:45:38.728Z,4.40
2023-09-28T15:48:06.444Z,4.40
2023-09-28T15:50:33.281Z,4.30
2023-09-28T15:53:00.279Z,4.50
2023-09-28T15:55:27.286Z,4.10
2023-09-28T15:57:54.149Z,4.10
2023-09-28T16:00:36.128Z,4.20
2023-09-28T16:03:05.487Z,5.10
2023-09-28T16:05:32.434Z,4.30
2023-09-28T16:07:59.161Z,4.40
2023-09-28T16:10:25.828Z,4.80
2023-09-28T16:12:52.688Z,4.60
2023-09-28T16:15:19.453Z,5.00
2023-09-28T16:17:46.165Z,4.80
2023-09-28T16:20:12.976Z,4.30
2023-09-28T16:22:40.435Z,4.70
2023-09-28T16:25:07.789Z,4.90
2023-09-28T16:27:34.632Z,4.30
2023-09-28T16:30:01.313Z,4.80
2023-09-28T16:32:28.107Z,5.00
2023-09-28T16:34:55.001Z,4.90
2023-09-28T16:37:21.715Z,5.30
2023-09-28T16:39:48.463Z,5.20
2023-09-28T16:42:17.189Z,4.70
2023-09-28T16:44:43.906Z,5.10
2023-09-28T16:47:10.689Z,5.20
2023-09-28T16:49:37.439Z,6.10
2023-09-28T16:52:05.442Z,6.30
2023-09-28T16:54:32.016Z,6.60
2023-09-28T16:56:59.088Z,7.00
2023-09-28T16:59:25.823Z,8.30
2023-09-28T17:01:52.775Z,8.40
2023-09-28T17:04:19.696Z,7.50
2023-09-28T17:13:24.774Z,9.80
2023-09-28T17:15:53.884Z,9.10
2023-09-28T17:18:23.095Z,10.80
2023-09-28T17:20:51.250Z,14.30
2023-09-28T17:23:19.446Z,11.90
2023-09-28T17:25:48.005Z,11.70
2023-09-28T17:28:16.718Z,10.20
2023-09-28T17:30:47.536Z,9.50
2023-09-28T18:39:44.527Z,10.40
2023-09-28T18:42:13.988Z,11.20
2023-09-28T18:44:42.281Z,14.20
2023-09-28T18:47:11.438Z,16.90
2023-09-28T18:49:39.391Z,14.40
2023-09-28T18:52:07.855Z,12.30
2023-09-28T18:54:36.518Z,12.70
2023-09-28T18:57:07.102Z,12.20
2023-09-28T18:59:35.147Z,12.10
2023-09-28T19:02:04.222Z,10.30
2023-09-28T19:04:35.318Z,11.00
2023-09-28T19:07:04.434Z,11.10
2023-09-28T19:09:32.505Z,12.00
2023-09-28T19:12:02.308Z,13.50
2023-09-28T19:14:34.320Z,13.70
2023-09-28T19:17:02.450Z,12.00
2023-09-28T19:19:30.642Z,12.80
2023-09-28T19:21:58.865Z,11.40
2023-09-28T19:24:27.111Z,11.60
2023-09-28T19:27:03.775Z,11.20
2023-09-28T19:44:44.284Z,11.10
2023-09-28T19:47:11.017Z,13.20
2023-09-28T19:49:37.559Z,16.60
2023-09-28T19:52:04.561Z,19.90
2023-09-28T19:54:31.596Z,18.40
2023-09-28T19:56:58.163Z,17.40
2023-09-28T19:59:24.775Z,18.10
2023-09-28T20:01:51.407Z,17.50
2023-09-28T20:04:18.193Z,18.00
2023-09-28T20:06:44.805Z,16.70
2023-09-28T20:09:11.978Z,19.00
2023-09-28T20:11:40.844Z,17.30
2023-09-28T20:14:08.084Z,16.30
2023-09-28T20:16:36.214Z,12.20
2023-09-28T20:19:03.575Z,12.90
2023-09-28T20:21:30.535Z,13.70
2023-09-28T20:28:27.785Z,12.30
2023-09-28T20:30:56.103Z,12.80
2023-09-28T20:33:24.119Z,12.30
2023-09-28T20:35:52.254Z,11.80
2023-09-28T20:38:20.273Z,11.90
2023-09-28T20:40:48.149Z,14.00
2023-09-28T20:43:16.006Z,15.30
2023-09-28T20:45:43.995Z,15.50
2023-09-28T20:48:13.269Z,14.90
2023-09-28T20:50:42.022Z,18.80
2023-09-28T20:53:11.600Z,21.20
2023-09-28T20:55:39.900Z,20.80
2023-09-28T20:58:07.886Z,18.40
2023-09-28T21:00:36.206Z,17.40
2023-09-28T21:03:04.590Z,16.50
2023-09-28T21:05:32.921Z,15.90
2023-09-28T21:08:01.259Z,15.80
2023-09-28T21:10:29.422Z,16.20
2023-09-28T21:12:57.564Z,15.10
2023-09-28T21:15:25.534Z,16.60
2023-09-28T21:17:53.632Z,21.60
2023-09-28T21:20:22.085Z,23.40
2023-09-28T21:22:50.141Z,21.80
2023-09-28T21:25:18.087Z,22.40
2023-09-28T21:27:46.117Z,22.60
2023-09-28T21:30:14.493Z,21.60
2023-09-28T21:32:42.617Z,20.40
2023-09-28T21:35:11.868Z,18.60
2023-09-28T21:37:39.936Z,17.50
2023-09-28T21:40:09.610Z,18.80
2023-09-28T21:42:37.657Z,17.60
2023-09-28T21:45:10.006Z,18.50
2023-09-28T21:47:38.656Z,17.70
2023-09-28T21:50:10.110Z,17.70
2023-09-28T21:52:38.769Z,18.00
2023-09-28T21:55:08.447Z,18.40
2023-09-28T21:57:36.591Z,19.30
2023-09-28T22:00:27.073Z,18.40
2023-09-28T22:02:55.126Z,18.10
2023-09-28T22:05:23.216Z,18.30
2023-09-28T22:07:52.140Z,18.20
2023-09-28T22:10:20.549Z,17.60
2023-09-28T22:12:48.494Z,14.90
2023-09-28T22:15:16.635Z,13.60
2023-09-28T22:17:44.841Z,11.20
2023-09-28T22:20:12.819Z,11.30
2023-09-28T22:22:41.158Z,12.50
2023-09-28T22:25:10.045Z,11.70
2023-09-28T22:27:38.288Z,12.80
2023-09-28T22:30:08.169Z,14.30
2023-09-28T22:32:40.092Z,13.80
2023-09-28T22:35:13.553Z,13.90
2023-09-28T22:37:42.980Z,15.90
2023-09-28T22:40:27.110Z,15.50
2023-09-28T22:42:56.596Z,16.20
2023-09-28T22:45:25.118Z,17.30
2023-09-28T22:47:53.322Z,16.70
2023-09-28T22:50:21.340Z,17.90
2023-09-28T22:52:49.287Z,19.00
2023-09-28T22:55:17.486Z,19.80
2023-09-28T22:57:46.099Z,18.80
2023-09-28T23:00:17.580Z,17.80
2023-09-28T23:02:45.797Z,16.90
2023-09-28T23:05:13.889Z,16.50
2023-09-28T23:07:42.922Z,17.30
2023-09-28T23:10:15.842Z,18.30
2023-09-28T23:12:44.113Z,17.70
2023-09-28T23:15:15.487Z,16.90
2023-09-28T23:17:43.840Z,17.90
2023-09-28T23:20:12.711Z,17.00
2023-09-28T23:22:44.905Z,16.60
2023-09-28T23:25:14.284Z,16.00
2023-09-28T23:27:43.988Z,17.10
2023-09-28T23:30:20.929Z,17.10
2023-09-28T23:32:51.264Z,18.00
2023-09-28T23:35:24.032Z,16.80
2023-09-28T23:37:55.664Z,16.30
2023-09-28T23:40:24.432Z,15.50
2023-09-28T23:42:53.986Z,15.90
2023-09-28T23:45:24.328Z,16.50
2023-09-28T23:47:53.643Z,13.90
2023-09-28T23:50:22.817Z,15.60
2023-09-28T23:52:50.840Z,16.40
2023-09-28T23:55:18.964Z,17.10
2023-09-28T23:57:47.133Z,16.30
